Latest Weather Observations for Narrabri

IDN60801

Issued at 3:53 pm EDT Tuesday 29 November 2022 (issued every 10 minutes, with the page automatically refreshed every 10 minutes)

About weather observations | Map of weather stations | Latest weather observations for NSW | Other Formats
Station Details ID: 054038 Name: NARRABRI AIRPORT AWS Lat: -30.32 Lon: 149.83 Height: 229.02 m
Data from the previous 72 hours. | See also: Recent months at Narrabri
Date/Time
EDT
Temp
°C
App
Temp
°C
Dew
Point
°C
Rel
Hum
%
Delta-T
°C
Wind Press
QNH
hPa
Press
MSL
hPa
Rain since
9am
mm
Dir  Spd
km/h
Gust
km/h
Spd
kts
Gust
kts
29/03:30pm 29.4 25.9 3.4 19 13.3 S 11 20 6 11 1009.0 1007.9 0.0
29/03:00pm 28.6 24.3 3.5 20 12.8 S 15 26 8 14 1009.3 1008.2 0.0
29/02:30pm 29.1 25.3 5.9 23 12.3 SSW 15 28 8 15 1009.7 1008.6 0.0
29/02:00pm 28.5 25.2 6.6 25 11.7 SW 13 26 7 14 1010.1 1009.0 0.0
29/01:30pm 27.7 23.4 3.4 21 12.3 SW 15 22 8 12 1010.6 1009.5 0.0
29/01:00pm 27.2 22.3 4.9 24 11.5 SW 20 28 11 15 1011.0 1009.9 0.0
29/12:30pm 27.6 23.3 5.2 24 11.6 SW 17 24 9 13 1011.2 1010.1 0.0
29/12:00pm 26.9 23.2 6.3 27 10.9 WSW 15 28 8 15 1011.4 1010.4 0.0
29/11:30am 26.3 22.4 5.3 26 10.9 SSW 15 33 8 18 1011.8 1010.7 0.0
29/11:00am 25.9 21.3 6.5 29 10.2 S 20 30 11 16 1012.1 1011.0 0.0
29/10:30am 24.4 21.6 8.4 36 8.6 S 13 20 7 11 1011.9 1010.8 0.0
29/10:00am 23.5 20.4 7.2 35 8.6 SSE 13 19 7 10 1012.2 1011.1 0.0
29/09:30am 23.1 20.5 9.5 42 7.4 SSE 13 20 7 11 1012.3 1011.2 0.0
29/09:00am 21.7 18.4 7.9 41 7.3 SSE 15 20 8 11 1012.2 1011.1 0.0
29/08:30am 20.4 17.3 9.0 48 6.1 SSE 15 22 8 12 1012.1 1011.0 0.0
29/08:00am 19.2 16.7 9.7 54 5.1 S 13 17 7 9 1012.0 1010.9 0.0
29/07:30am 17.8 15.9 8.9 56 4.7 S 9 13 5 7 1011.7 1010.6 0.0
29/07:00am 15.8 14.0 9.5 66 3.3 S 9 13 5 7 1011.1 1010.0 0.0
29/06:30am 13.0 10.7 8.9 76 2.1 S 11 13 6 7 1010.7 1009.6 0.0
29/06:00am 11.5 8.6 8.2 80 1.6 S 13 13 7 7 1010.4 1009.3 0.0
29/05:30am 11.5 9.2 7.6 77 1.9 SSW 9 11 5 6 1010.0 1008.9 0.0
29/05:00am 12.6 10.7 7.5 71 2.5 SSW 7 11 4 6 1009.7 1008.6 0.0
29/04:30am 13.3 11.0 7.5 68 2.9 S 9 13 5 7 1009.2 1008.1 0.0
29/04:00am 14.7 12.7 7.0 60 3.8 SSE 7 15 4 8 1009.2 1008.1 0.0
29/03:30am 16.2 13.3 6.6 53 4.8 SSE 11 15 6 8 1009.3 1008.2 0.0
29/03:00am 17.6 14.0 6.8 49 5.4 SSE 15 20 8 11 1009.1 1008.0 0.0
29/02:30am 18.1 14.5 6.6 47 5.8 SE 15 20 8 11 1009.2 1008.1 0.0
29/02:00am 17.8 14.9 6.7 48 5.6 SE 11 15 6 8 1009.2 1008.1 0.0
29/01:30am 17.7 15.2 6.6 48 5.6 SE 9 11 5 6 1009.2 1008.1 0.0
29/01:00am 17.8 15.7 6.7 48 5.6 SE 7 11 4 6 1009.5 1008.4 0.0
29/12:30am 18.0 15.9 6.5 47 5.8 SSE 7 9 4 5 1009.5 1008.4 0.0
29/12:00am 18.1 15.4 7.2 49 5.6 SSE 11 15 6 8 1009.3 1008.2 0.0
 
Date/Time
EDT
Temp
°C
App
Temp
°C
Dew
Point
°C
Rel
Hum
%
Delta-T
°C
Wind Press
QNH
hPa
Press
MSL
hPa
Rain since
9am
mm
Dir  Spd
km/h
Gust
km/h
Spd
kts
Gust
kts
28/11:30pm 17.6 15.8 7.1 50 5.3 SE 6 9 3 5 1009.3 1008.2 0.0
28/11:00pm 18.4 15.7 7.5 49 5.6 SSE 11 13 6 7 1009.1 1008.0 0.0
28/10:30pm 18.6 16.2 7.1 47 5.9 S 9 13 5 7 1008.7 1007.6 0.0
28/10:00pm 19.1 16.7 6.9 45 6.2 SSW 9 11 5 6 1008.1 1007.0 0.0
28/09:30pm 20.8 17.9 6.7 40 7.2 SW 11 15 6 8 1007.5 1006.3 0.0
28/09:00pm 21.8 18.4 5.7 35 8.2 SW 13 17 7 9 1007.0 1005.9 0.0
28/08:30pm 22.5 19.2 6.3 35 8.3 SSW 13 15 7 8 1006.7 1005.6 0.0
28/08:00pm 23.6 20.6 7.7 36 8.5 SW 13 15 7 8 1006.2 1005.1 0.0
28/07:30pm 26.0 22.7 6.6 29 10.2 SW 13 17 7 9 1005.6 1004.5 0.0
28/07:00pm 27.5 23.8 6.3 26 11.3 SW 15 20 8 11 1005.1 1004.0 0.0
28/06:30pm 28.7 24.0 6.1 24 12.0 WSW 20 28 11 15 1004.8 1003.7 0.0
28/06:00pm 29.6 25.1 6.9 24 12.3 SW 20 28 11 15 1004.4 1003.3 0.0
28/05:30pm 30.1 24.9 7.3 24 12.5 WSW 24 35 13 19 1004.4 1003.3 0.0
28/05:00pm 30.0 24.9 7.8 25 12.3 SW 24 30 13 16 1004.3 1003.2 0.0
28/04:30pm 30.9 25.6 8.6 25 12.5 W 26 35 14 19 1004.5 1003.4 0.0
28/04:00pm 30.8 26.7 8.5 25 12.5 W 20 32 11 17 1004.7 1003.6 0.0
28/03:30pm 31.1 25.7 8.2 24 12.8 WNW 26 35 14 19 1004.6 1003.5 0.0
28/03:00pm 31.2 26.7 10.0 27 12.2 WSW 24 37 13 20 1004.7 1003.6 0.0
28/02:30pm 30.8 26.8 9.1 26 12.3 W 20 33 11 18 1004.8 1003.7 0.0
28/02:00pm 30.6 25.7 8.3 25 12.5 WSW 24 35 13 19 1005.0 1003.9 0.0
28/01:30pm 31.0 27.0 10.4 28 11.9 W 22 33 12 18 1005.3 1004.2 0.0
28/01:00pm 29.3 25.8 10.9 32 10.7 W 20 28 11 15 1005.4 1004.3 0.0
28/12:30pm 29.0 26.3 12.8 36 9.6 W 19 28 10 15 1005.5 1004.4 0.0
28/12:00pm 28.1 26.3 13.2 39 8.9 W 15 20 8 11 1005.8 1004.7 0.0
28/11:30am 28.6 27.9 14.4 41 8.6 WNW 11 24 6 13 1006.0 1004.9 0.0
28/11:00am 27.9 27.6 16.5 50 7.2 W 13 20 7 11 1006.3 1005.2 0.0
28/10:30am 27.4 28.0 17.8 55 6.1 WNW 11 20 6 11 1006.4 1005.3 0.0
28/10:00am 26.4 26.7 16.9 56 6.0 NW 11 20 6 11 1006.4 1005.3 0.0
28/09:30am 25.3 25.3 17.2 61 5.1 NW 13 19 7 10 1006.3 1005.2 0.0
28/09:00am 24.7 24.3 17.2 63 4.7 N 15 20 8 11 1006.4 1005.3 0.0
28/08:30am 23.1 22.0 17.3 70 3.6 N 19 24 10 13 1006.5 1005.4 0.0
28/08:00am 23.3 22.3 17.5 70 3.6 N 19 30 10 16 1006.4 1005.3 0.0
28/07:30am 22.5 20.9 17.4 73 3.2 N 22 30 12 16 1006.3 1005.2 0.0
28/07:00am 22.1 21.0 17.2 74 3.0 N 19 26 10 14 1006.1 1005.0 0.0
28/06:30am 22.0 20.7 16.7 72 3.3 N 19 26 10 14 1005.8 1004.7 0.0
28/06:00am 22.1 20.8 16.8 72 3.3 N 19 28 10 15 1005.4 1004.3 0.0
28/05:30am 21.5 20.0 16.2 72 3.2 NNE 19 26 10 14 1005.1 1004.0 0.0
28/05:00am 21.1 19.3 15.9 72 3.2 N 20 24 11 13 1004.9 1003.8 0.0
28/04:30am 21.2 19.4 16.0 72 3.2 NNE 20 32 11 17 1004.5 1003.4 0.0
28/04:00am 20.9 19.7 16.1 74 2.9 N 17 22 9 12 1004.6 1003.5 0.0
28/03:30am 20.7 19.8 15.9 74 2.9 NNE 15 17 8 9 1004.5 1003.4 0.0
28/03:00am 20.7 20.1 15.7 73 3.0 NNE 13 19 7 10 1004.6 1003.5 0.0
28/02:30am 19.3 19.1 14.8 75 2.7 N 9 15 5 8 1004.8 1003.7 0.0
28/02:00am 20.6 19.9 15.4 72 3.1 N 13 17 7 9 1004.9 1003.8 0.0
28/01:30am 20.7 20.0 15.3 71 3.2 N 13 17 7 9 1004.9 1003.8 0.0
28/01:00am 22.2 19.8 15.3 65 4.2 N 22 32 12 17 1004.9 1003.8 0.0
28/12:30am 23.9 19.4 14.9 57 5.4 N 32 43 17 23 1005.0 1003.9 0.0
28/12:00am 24.8 19.0 14.0 51 6.5 N 37 48 20 26 1005.0 1003.9 0.0
 
Date/Time
EDT
Temp
°C
App
Temp
°C
Dew
Point
°C
Rel
Hum
%
Delta-T
°C
Wind Press
QNH
hPa
Press
MSL
hPa
Rain since
9am
mm
Dir  Spd
km/h
Gust
km/h
Spd
kts
Gust
kts
27/11:30pm 25.3 19.0 13.5 48 7.0 NNE 39 50 21 27 1004.5 1003.4 0.0
27/11:00pm 25.5 19.2 13.4 47 7.2 NNE 39 56 21 30 1004.1 1003.0 0.0
27/10:30pm 25.9 20.2 13.1 45 7.5 NNE 35 48 19 26 1003.9 1002.8 0.0
27/10:00pm 26.0 21.5 12.5 43 7.9 NNE 28 41 15 22 1003.8 1002.7 0.0
27/09:30pm 25.6 21.8 12.4 43 7.7 NNE 24 32 13 17 1003.7 1002.5 0.0
27/09:00pm 25.9 21.6 12.0 42 8.1 NNE 26 35 14 19 1003.7 1002.5 0.0
27/08:30pm 26.0 22.8 11.4 40 8.4 NNE 19 24 10 13 1003.4 1002.2 0.0
27/08:00pm 26.9 21.5 11.0 37 9.1 NNE 30 37 16 20 1003.0 1001.8 0.0
27/07:30pm 27.6 22.4 10.3 34 9.8 NNE 28 39 15 21 1002.9 1001.7 0.0
27/07:00pm 28.4 22.8 10.1 32 10.4 NNE 30 39 16 21 1002.7 1001.5 0.0
27/06:30pm 29.4 23.7 11.0 32 10.6 NNE 32 43 17 23 1002.6 1001.4 0.0
27/06:00pm 29.2 23.8 10.8 32 10.6 NNE 30 41 16 22 1002.7 1001.5 0.0
27/05:30pm 30.5 26.2 11.9 31 11.0 NNE 26 35 14 19 1002.7 1001.5 0.0
27/05:00pm 29.3 23.5 10.9 32 10.7 NNE 32 43 17 23 1003.0 1001.8 0.0
27/04:30pm 30.0 24.2 11.5 32 10.8 NNE 33 44 18 24 1003.2 1002.0 0.0
27/04:00pm 31.0 25.3 11.9 31 11.3 N 33 48 18 26 1003.3 1002.1 0.0
27/03:55pm 30.1 24.8 11.1 31 11.0 NNE 30 48 16 26 1003.3 1002.1 0.0
27/03:30pm 30.4 26.0 10.4 29 11.5 NNE 24 37 13 20 1003.7 1002.5 0.0
27/03:00pm 30.6 24.7 10.5 29 11.6 NNE 32 41 17 22 1003.8 1002.7 0.0
27/02:30pm 31.6 26.7 11.4 29 11.9 NNE 28 35 15 19 1004.2 1003.1 0.0
27/02:00pm 31.9 26.9 11.1 28 12.2 N 28 41 15 22 1004.6 1003.5 0.0
27/01:30pm 31.7 26.7 11.0 28 12.1 N 28 35 15 19 1005.0 1003.9 0.0
27/01:00pm 31.1 26.5 11.0 29 11.7 N 26 35 14 19 1005.4 1004.3 0.0
27/12:30pm 30.4 26.4 11.9 32 10.9 N 24 32 13 17 1005.8 1004.7 0.0
27/12:00pm 30.1 27.4 11.6 32 10.9 N 17 24 9 13 1006.1 1005.0 0.0
27/11:30am 28.9 25.0 9.6 30 10.9 N 20 28 11 15 1006.5 1005.4 0.0
27/11:00am 27.3 25.2 12.5 40 8.7 N 15 20 8 11 1006.8 1005.7 0.0
27/10:30am 25.7 24.1 11.5 41 8.1 NE 11 17 6 9 1007.2 1006.0 0.0
27/10:00am 25.2 23.1 12.4 45 7.5 NE 15 20 8 11 1007.3 1006.1 0.0
27/09:30am 24.6 21.5 12.2 46 7.2 NNE 20 26 11 14 1007.3 1006.1 0.0
27/09:00am 24.1 20.2 12.1 47 6.9 NNE 24 33 13 18 1007.5 1006.3 0.0
27/08:30am 23.4 19.5 12.1 49 6.5 NNE 24 30 13 16 1007.6 1006.5 0.0
27/08:00am 23.4 18.7 10.8 45 7.1 NNE 26 41 14 22 1007.4 1006.2 0.0
27/07:30am 22.9 19.5 10.7 46 6.8 NNE 19 32 10 17 1007.3 1006.1 0.0
27/07:00am 21.8 19.1 10.3 48 6.4 NNE 15 20 8 11 1007.0 1005.9 0.0
27/06:30am 21.8 18.5 9.7 46 6.6 NNE 17 30 9 16 1007.0 1005.9 0.0
27/06:23am 21.4 18.5 9.6 47 6.4 NNE 15 22 8 12 1007.2 1006.0 0.0
27/06:00am 16.2 15.3 10.7 70 3.0 N 6 13 3 7 1006.7 1005.6 0.0
27/05:30am 15.8 15.7 10.8 72 2.7 S 2 6 1 3 1006.2 1005.1 0.0
27/05:00am 16.2 15.6 11.6 74 2.5 NW 6 9 3 5 1006.3 1005.2 0.0
27/04:30am 16.6 17.4 12.4 76 2.3 CALM 0 0 0 0 1005.9 1004.8 0.0
27/04:00am 16.6 17.1 11.7 73 2.7 CALM 0 0 0 0 1006.2 1005.1 0.0
27/03:30am 18.1 16.5 8.9 55 4.8 E 7 11 4 6 1006.2 1005.1 0.0
27/03:00am 16.7 16.5 10.5 67 3.3 E 2 7 1 4 1006.7 1005.6 0.0
27/02:30am 16.4 16.5 10.0 66 3.4 CALM 0 0 0 0 1007.0 1005.9 0.0
27/02:00am 16.8 16.9 10.2 65 3.5 CALM 0 4 0 2 1007.5 1006.3 0.0
27/01:30am 18.2 14.9 8.2 52 5.2 E 15 17 8 9 1007.8 1006.7 0.0
27/01:00am 18.0 14.3 8.0 52 5.2 E 17 20 9 11 1008.0 1006.9 0.0
27/12:30am 17.3 13.6 7.9 54 4.8 E 17 20 9 11 1008.4 1007.3 0.0
27/12:00am 17.8 14.1 8.1 53 5.0 E 17 20 9 11 1008.6 1007.5 0.0
 
Date/Time
EDT
Temp
°C
App
Temp
°C
Dew
Point
°C
Rel
Hum
%
Delta-T
°C
Wind Press
QNH
hPa
Press
MSL
hPa
Rain since
9am
mm
Dir  Spd
km/h
Gust
km/h
Spd
kts
Gust
kts
26/11:30pm 18.3 15.4 8.0 51 5.3 E 13 19 7 10 1008.9 1007.8 0.0
26/11:00pm 19.9 16.5 7.6 45 6.4 E 15 17 8 9 1009.1 1008.0 0.0
26/10:30pm 19.3 16.8 8.0 48 5.9 E 11 13 6 7 1009.1 1008.0 0.0
26/10:00pm 19.6 16.5 8.9 50 5.7 E 15 17 8 9 1009.1 1008.0 0.0
26/09:30pm 21.2 18.1 8.8 45 6.6 E 15 17 8 9 1009.0 1007.9 0.0
26/09:00pm 20.8 18.2 9.4 48 6.2 E 13 15 7 8 1008.9 1007.8 0.0
26/08:30pm 23.3 21.2 6.6 34 8.7 ENE 7 9 4 5 1008.9 1007.8 0.0
26/08:00pm 23.9 21.8 6.7 33 9.0 ENE 7 9 4 5 1008.6 1007.5 0.0
26/07:30pm 25.9 25.1 6.5 29 10.2 CALM 0 0 0 0 1008.4 1007.3 0.0
26/07:00pm 28.8 28.3 7.9 27 11.5 CALM 0 0 0 0 1008.4 1007.3 0.0
26/06:30pm 30.3 29.4 6.2 22 12.9 CALM 0 0 0 0 1008.3 1007.2 0.0
26/06:00pm 31.1 28.5 4.0 18 14.1 WSW 7 15 4 8 1008.4 1007.3 0.0
26/05:30pm 30.8 29.1 6.0 21 13.3 SSW 4 9 2 5 1008.5 1007.4 0.0
26/05:00pm 30.6 27.6 5.8 21 13.3 SSW 11 17 6 9 1008.6 1007.5 0.0
26/04:30pm 31.3 29.4 4.9 19 14.0 WSW 4 15 2 8 1008.9 1007.8 0.0
26/04:00pm 31.1 29.1 6.2 21 13.5 S 6 13 3 7 1009.0 1007.9 0.0

Other formats

Comma delimited format used in spreadsheet applications
http://www.bom.gov.au/fwo/IDN60801/IDN60801.95734.axf

JavaScript Object Notation format (JSON) in row-major order
http://www.bom.gov.au/fwo/IDN60801/IDN60801.95734.json

Data quality

Most of these data are generated automatically and are frequently updated. Quality checks on data are not normally performed. It is possible for incorrect values to appear. Refer to information at About Latest Weather Observations and please check the disclaimer before using these data.